duproprio.com alexa rank chart, duproprio.com alexa rank daily changes

duproprio.com alexa rank chart, duproprio.com alexa rank daily changes

duproprio.com
Actual rank:
25 519

RANK HISTORY

Date Rank Diff
2018/04/17 25 519 +822
2018/04/16 24 697 -9 944
2018/04/15 34 641 -10 396
2018/04/14 45 037 +11 850
2018/04/13 33 187 -11 591
2018/04/12 44 778 +14 801
2018/04/11 29 977 -3 452
2018/04/10 33 429 +1 008
2018/04/09 32 421 -4 109
2018/04/08 36 530 -12 591
2018/04/07 49 121 +14 123
2018/04/06 34 998 -1 108
2018/04/05 36 106 +9 223
2018/04/04 26 883 -7 819
2018/04/03 34 702 -1 645
2018/04/02 36 347 +4 948
2018/04/01 31 399 -504
2018/03/31 31 903 -5 965
2018/03/30 37 868 +11 365
2018/03/29 26 503 -5 040
2018/03/28 31 543 +4 835
2018/03/27 26 708 +1 599
2018/03/26 25 109 -8 074
2018/03/25 33 183 -7 690
2018/03/24 40 873 +7 884
2018/03/23 32 989 -10 268
2018/03/22 43 257 +8 736
2018/03/21 34 521 +3 795
2018/03/20 30 726 -4 060
2018/03/19 34 786 +2 287
2018/03/18 32 499 -6 679
2018/03/17 39 178 +8 598
2018/03/16 30 580 -8 702
2018/03/15 39 282 -1 100
2018/03/14 40 382 +12 058
2018/03/13 28 324 -7 408
2018/03/12 35 732 -7 504
2018/03/11 43 236 -1 041
2018/03/10 44 277 +12 034
2018/03/09 32 243 -13 904
2018/03/08 46 147 +10 070
2018/03/07 36 077 +609
2018/03/06 35 468 +1 811
2018/03/05 33 657 -7 729
2018/03/04 41 386 +1 943
2018/03/03 39 443 +1 425
2018/03/02 38 018 -19 070
2018/03/01 57 088 +23 854
2018/02/28 33 234 +7 651
2018/02/27 25 583 -4 075
2018/02/26 29 658 -14 644
2018/02/25 44 302 +10 510
2018/02/24 33 792 -2 188
2018/02/23 35 980 +721
2018/02/22 35 259 -2 310
2018/02/21 37 569 +14 072
2018/02/20 23 497 -5 965
2018/02/19 29 462 -334
2018/02/18 29 796 -14 166
2018/02/17 43 962 +4 506
2018/02/16 39 456

WIDGET FOR YOUR SITE

DOMAINS WITH THE NEAREST RANK

Domain Rank
arvest.com 25 514
fbunseen.com 25 515
graysonline.com 25 516
kita-kore.com 25 517
speedhunters.com 25 518
duproprio.com 25 519
needtoporn.com 25 520
hrdc-drhc.gc.ca 25 521
clipstudio.net 25 522
dnevno.hr 25 523
lobi.co 25 524

DOMAINS WITH THE NEAREST RANK BY TLD .com

Domain Rank
arvest.com 25 514
fbunseen.com 25 515
graysonline.com 25 516
kita-kore.com 25 517
speedhunters.com 25 518
duproprio.com 25 519
needtoporn.com 25 520
nadarenews.com 25 525
secretbenefits.com 25 526
drakor-id.com 25 527
audionetwork.com 25 529